Zurich, MT (59547)

1:49 PM MDT on October 20, 2017 (GMT -0600)
15 Mile Creek | | Change Station
Active Advisory: High Wind Watch

Elev 2362 ft 48.58 °N, 109.01 °W | Updated 5 seconds ago

Mostly Cloudy
Mostly Cloudy
59.3 °F
Feels Like 59.3 °F
N
4.0
Wind Variable Wind from West
Gusts 4.0 mph

Today
High -- | Low -- °F
--% Chance of Precip.
Yesterday
High -- | Low -- °F
Precip. -- in
Pressure 29.24 in
Visibility 10.0 miles
Clouds Clear
Dew Point 37 °F
Humidity 43%
Rainfall 0.00 in
Snow Depth Not available.
7:44 AM 6:16 PM
New Moon, 1% visible
METAR KHVR 201853Z AUTO 27007KT 10SM CLR 12/01 A2923 RMK AO2 SLP900 T01170006
Pressure 29.24 in
Visibility 10.0 miles
Clouds Clear
Dew Point 37 °F
Humidity 43%
Rainfall 0.00 in
Snow Depth Not available.
7:44 AM 6:16 PM
New Moon, 1% visible
METAR KHVR 201853Z AUTO 27007KT 10SM CLR 12/01 A2923 RMK AO2 SLP900 T01170006

Get Your Daily Forecast Email!

Thanks for signing up!

Be on the lookout for a verification email in your inbox.

You'll start receiving severe weather alerts in your inbox..

×

10-Day Weather Forecast

Almanac

Astronomy

Oct. 20, 2017 Rise Set
Actual Time
Civil Twilight
Nautical Twilight
Astronomical Twilight
Moon
Length of Visible Light
Length of Day
Tomorrow will be .
, % of the Moon is Illuminated

Today's Extremes

State Highs State Lows

Community

WunderPhotos

Category 6

Welcome to Category 6. This is the collective home for Weather Underground's featured writeups by Dr. Jeff Masters (right), Bob Henson (left), Chris Burt, and other regular contributors.

Nearby

Air Quality

  Air Quality AQ Index Pollutant
Not available.

Snow Depth

Station Depth Elevation

Earthquake Activity

City Distance Mag. Time & Date
Minimum magnitude displayed is 2.5.

Coastal Water Temperatures

Place Temperature

Stations

Nearby Weather Stations

Station Location Temp. Windchill Dew Point Humidity Wind Precip. Elev Updated Type
                   

Watches & Warnings

High Wind Watch
Issued: 9:05 AM MDT Oct. 20, 2017 – National Weather Service

... High wind watch in effect from Sunday morning through Sunday
evening...

The National Weather Service in Great Falls has issued a high
wind watch, which is in effect from Sunday morning through Sunday
evening.

* Winds: west 35 to 50 mph with gusts up to 65 mph.

* Timing: early Sunday morning through Sunday night, with
strongest winds Sunday afternoon.

* Impacts: damaging winds could blow down trees and power lines.
Power outages are possible. Travel will be difficult, especially
for high profile vehicles.

Precautionary/preparedness actions...

A high wind watch means there is the potential for a hazardous
high wind event. Sustained winds of at least 40 mph, or gusts of
58 mph or stronger, may occur. Continue to monitor the latest
forecasts.